Search for airport 
image banner adimage banner adimage banner ad
image banner ad

PN76 - Upmc Northwest

Located in Seneca, United States

ICAO - PN76, IATA -

Data provided by Airmate  

General information

Coordinates: N41°21'44" W79°42'3"
Elevation is 1415 feet MSL.
Magnetic variation is -10° East
View others Airports in Pennsylvania

Operational data

Special qualification required
Current time UTC:
Current local time:
Weather at : KFKL - Venango Rgnl ( 13 km )
METAR: KFKL 091438Z AUTO 16007KT 5SM RA BR SCT013 BKN019 OVC036 04/02 A2999 RMK AO2 RAB02 P0002
TAF: KFKL 091120Z 0912/1012 14003KT P6SM -RA BKN050 FM091500 12007KT 5SM -RA BR OVC010 FM091700 06006KT 3SM RA BR OVC005 FM100100 02006KT 4SM -RA BR OVC005 FM100400 36004KT P6SM BKN006 FM100900 29005KT P6SM BKN010
View NOTAMs / SUP AIP / TFR affecting this airport [VIEW]
Communications frequencies: [VIEW]

Runways:

Airport contact information

Address: Seneca United States

Satellite view of PN76